createdAt,value
2018-11-01T00:00:23.196Z,852.30
2018-11-01T00:01:23.064Z,852.29
2018-11-01T00:02:22.933Z,852.26
2018-11-01T00:03:22.804Z,852.23
2018-11-01T00:04:22.675Z,852.19
2018-11-01T00:05:22.546Z,852.22
2018-11-01T00:06:22.414Z,852.24
2018-11-01T00:07:22.285Z,852.20
2018-11-01T00:08:22.156Z,852.20
2018-11-01T00:09:22.029Z,852.12
2018-11-01T00:10:21.896Z,852.12
2018-11-01T00:11:21.771Z,852.10
2018-11-01T00:12:21.637Z,852.12
2018-11-01T00:13:21.509Z,852.12
2018-11-01T00:14:21.377Z,852.11
2018-11-01T00:15:21.250Z,852.18
2018-11-01T00:16:21.119Z,852.15
2018-11-01T00:17:20.988Z,852.16
2018-11-01T00:18:20.860Z,852.13
2018-11-01T00:19:20.730Z,852.15
2018-11-01T00:20:20.602Z,852.20
2018-11-01T00:21:20.470Z,852.17
2018-11-01T00:22:20.339Z,852.17
2018-11-01T00:23:20.211Z,852.15
2018-11-01T00:24:20.081Z,852.15
2018-11-01T00:25:19.952Z,852.14
2018-11-01T00:26:19.823Z,852.11
2018-11-01T00:27:19.692Z,852.13
2018-11-01T00:28:19.563Z,852.14
2018-11-01T00:29:19.434Z,852.17
2018-11-01T00:30:19.304Z,852.15
2018-11-01T00:31:19.172Z,852.15
2018-11-01T00:32:19.044Z,852.16
2018-11-01T00:33:18.915Z,852.12
2018-11-01T00:34:18.785Z,852.10
2018-11-01T00:35:18.656Z,852.08
2018-11-01T00:36:18.525Z,852.07
2018-11-01T00:37:18.395Z,852.00
2018-11-01T00:38:18.272Z,851.98
2018-11-01T00:39:18.137Z,851.97
2018-11-01T00:40:18.008Z,851.97
2018-11-01T00:41:17.879Z,851.96
2018-11-01T00:42:17.748Z,851.98
2018-11-01T00:43:17.618Z,852.01
2018-11-01T00:44:17.489Z,852.00
2018-11-01T00:45:17.356Z,851.87
2018-11-01T00:46:17.226Z,851.83
2018-11-01T00:47:17.099Z,851.79
2018-11-01T00:48:17.018Z,851.84
2018-11-01T00:49:16.839Z,851.84
2018-11-01T00:50:16.713Z,851.86
2018-11-01T00:51:16.578Z,851.88
2018-11-01T00:52:16.449Z,851.90
2018-11-01T00:53:16.320Z,851.90
2018-11-01T00:54:16.189Z,851.92
2018-11-01T00:55:16.059Z,851.93
2018-11-01T00:56:15.931Z,851.94
2018-11-01T00:57:15.803Z,851.89
2018-11-01T00:58:15.672Z,851.88
2018-11-01T00:59:15.542Z,851.87
2018-11-01T01:00:15.434Z,851.83
2018-11-01T01:01:15.283Z,851.81
2018-11-01T01:02:15.152Z,851.79
2018-11-01T01:03:15.022Z,851.79
2018-11-01T01:04:14.893Z,851.82
2018-11-01T01:05:14.764Z,851.88
2018-11-01T01:06:14.632Z,851.88
2018-11-01T01:07:14.506Z,851.89
2018-11-01T01:08:14.376Z,851.87
2018-11-01T01:09:14.245Z,851.85
2018-11-01T01:10:14.117Z,851.81
2018-11-01T01:11:13.985Z,851.84
2018-11-01T01:12:13.857Z,851.72
2018-11-01T01:13:13.727Z,851.76
2018-11-01T01:14:13.597Z,851.74
2018-11-01T01:15:13.466Z,851.82
2018-11-01T01:16:13.338Z,851.86
2018-11-01T01:17:13.207Z,851.91
2018-11-01T01:18:13.078Z,851.99
2018-11-01T01:19:12.948Z,852.01
2018-11-01T01:20:12.823Z,852.02
2018-11-01T01:21:12.687Z,851.96
2018-11-01T01:22:12.557Z,851.91
2018-11-01T01:23:12.432Z,851.79
2018-11-01T01:24:12.298Z,851.77
2018-11-01T01:25:12.169Z,851.75
2018-11-01T01:26:12.039Z,851.74
2018-11-01T01:27:11.909Z,851.79
2018-11-01T01:28:11.780Z,851.77
2018-11-01T01:29:11.654Z,851.72
2018-11-01T01:30:11.528Z,851.74
2018-11-01T01:31:11.393Z,851.75
2018-11-01T01:32:11.260Z,851.81
2018-11-01T01:33:11.133Z,851.88
2018-11-01T01:34:11.001Z,851.93
2018-11-01T01:35:10.872Z,851.93
2018-11-01T01:36:10.741Z,852.00
2018-11-01T01:37:10.611Z,852.03
2018-11-01T01:38:10.483Z,852.02
2018-11-01T01:39:10.352Z,851.96
2018-11-01T01:40:10.225Z,851.99
2018-11-01T01:41:10.093Z,851.95
2018-11-01T01:42:09.962Z,851.92
2018-11-01T01:43:09.838Z,851.88
2018-11-01T01:44:09.704Z,851.84
2018-11-01T01:45:09.574Z,851.81
2018-11-01T01:46:09.442Z,851.81
2018-11-01T01:47:09.314Z,851.78
2018-11-01T01:48:09.186Z,851.77
2018-11-01T01:49:09.057Z,851.82
2018-11-01T01:50:08.925Z,851.80
2018-11-01T01:51:08.849Z,851.88
2018-11-01T01:52:08.666Z,851.89
2018-11-01T01:53:08.539Z,851.86
2018-11-01T01:54:08.408Z,851.87
2018-11-01T01:55:08.280Z,851.88
2018-11-01T01:56:08.148Z,851.86
2018-11-01T01:57:08.018Z,851.88
2018-11-01T01:58:07.887Z,851.86
2018-11-01T01:59:07.760Z,851.94
2018-11-01T02:00:07.630Z,851.95
2018-11-01T02:01:07.504Z,851.97
2018-11-01T02:02:07.369Z,851.97
2018-11-01T02:03:07.241Z,851.96
2018-11-01T02:04:07.111Z,851.96
2018-11-01T02:05:06.981Z,851.97
2018-11-01T02:06:06.852Z,851.91
2018-11-01T02:07:06.729Z,851.87
2018-11-01T02:08:06.592Z,851.84
2018-11-01T02:09:06.463Z,851.74
2018-11-01T02:10:06.335Z,851.67
2018-11-01T02:11:06.205Z,851.58
2018-11-01T02:12:06.076Z,851.54
2018-11-01T02:13:05.948Z,851.56
2018-11-01T02:14:05.816Z,851.61
2018-11-01T02:15:05.686Z,851.71
2018-11-01T02:16:05.557Z,851.71
2018-11-01T02:17:05.428Z,851.72
2018-11-01T02:18:05.298Z,851.72
2018-11-01T02:19:05.170Z,851.68
2018-11-01T02:20:05.040Z,851.72
2018-11-01T02:21:04.912Z,851.77
2018-11-01T02:22:04.781Z,851.81
2018-11-01T02:23:04.652Z,851.84
2018-11-01T02:24:04.523Z,851.79
2018-11-01T02:25:04.393Z,851.84
2018-11-01T02:26:04.265Z,851.81
2018-11-01T02:27:04.135Z,851.88
2018-11-01T02:28:04.007Z,851.93
2018-11-01T02:29:03.877Z,851.98
2018-11-01T02:30:03.751Z,852.08
2018-11-01T02:31:03.620Z,852.14
2018-11-01T02:32:03.490Z,852.11
2018-11-01T02:33:03.363Z,852.10
2018-11-01T02:34:03.232Z,852.15
2018-11-01T02:35:03.105Z,852.22
2018-11-01T02:36:02.975Z,852.22
2018-11-01T02:37:02.848Z,852.28
2018-11-01T02:38:02.762Z,852.29
2018-11-01T02:39:02.585Z,852.23
2018-11-01T02:40:02.455Z,852.20
2018-11-01T02:41:02.329Z,852.14
2018-11-01T02:42:02.196Z,852.06
2018-11-01T02:43:02.071Z,852.02
2018-11-01T02:44:01.943Z,852.02
2018-11-01T02:45:01.813Z,852.03
2018-11-01T02:46:01.681Z,851.97
2018-11-01T02:47:01.556Z,852.01
2018-11-01T02:48:01.422Z,852.11
2018-11-01T02:49:01.297Z,852.15
2018-11-01T02:50:01.173Z,852.16
2018-11-01T02:51:01.039Z,852.12
2018-11-01T02:52:00.908Z,852.11
2018-11-01T02:53:00.779Z,852.10
2018-11-01T02:54:00.653Z,852.08
2018-11-01T02:55:00.520Z,852.00
2018-11-01T02:56:00.393Z,851.98
2018-11-01T02:57:00.264Z,852.00
2018-11-01T02:58:00.135Z,851.95
2018-11-01T02:59:00.004Z,852.02
2018-11-01T02:59:59.875Z,851.98
2018-11-01T03:00:59.750Z,852.03
2018-11-01T03:01:59.616Z,851.99
2018-11-01T03:02:59.486Z,851.93
2018-11-01T03:03:59.360Z,852.03
2018-11-01T03:04:59.233Z,852.08
2018-11-01T03:05:59.102Z,852.12
2018-11-01T03:06:58.973Z,852.14
2018-11-01T03:07:58.860Z,852.17
2018-11-01T03:08:58.715Z,852.16
2018-11-01T03:09:58.586Z,852.12
2018-11-01T03:10:58.458Z,852.03
2018-11-01T03:11:58.329Z,851.98
2018-11-01T03:12:58.199Z,851.94
2018-11-01T03:13:58.071Z,851.83
2018-11-01T03:14:57.940Z,851.76
2018-11-01T03:15:57.816Z,851.68
2018-11-01T03:16:57.710Z,851.65
2018-11-01T03:17:57.555Z,851.59
2018-11-01T03:18:57.428Z,851.50
2018-11-01T03:19:57.299Z,851.44
2018-11-01T03:20:57.170Z,851.47
2018-11-01T03:21:57.039Z,851.49
2018-11-01T03:22:56.916Z,851.63
2018-11-01T03:23:56.782Z,851.65
2018-11-01T03:24:56.657Z,851.66
2018-11-01T03:25:56.526Z,851.67
2018-11-01T03:26:56.402Z,851.74
2018-11-01T03:27:56.275Z,851.72
2018-11-01T03:28:56.141Z,851.76
2018-11-01T03:29:56.010Z,851.74
2018-11-01T03:30:55.882Z,851.73
2018-11-01T03:31:55.755Z,851.71
2018-11-01T03:32:55.625Z,851.74
2018-11-01T03:33:55.497Z,851.79
2018-11-01T03:34:55.374Z,851.73
2018-11-01T03:35:55.242Z,851.73
2018-11-01T03:36:55.113Z,851.69
2018-11-01T03:37:54.988Z,851.67
2018-11-01T03:38:54.945Z,851.65
2018-11-01T03:39:54.727Z,851.63
2018-11-01T03:40:54.599Z,851.64
2018-11-01T03:41:54.470Z,851.62
2018-11-01T03:42:54.343Z,851.61
2018-11-01T03:43:54.217Z,851.63
2018-11-01T03:44:54.088Z,851.66
2018-11-01T03:45:53.957Z,851.60
2018-11-01T03:46:53.829Z,851.64
2018-11-01T03:47:53.702Z,851.59
2018-11-01T03:48:53.581Z,851.56
2018-11-01T03:49:53.447Z,851.57
2018-11-01T03:50:53.317Z,851.52
2018-11-01T03:51:53.213Z,851.54
2018-11-01T03:52:53.063Z,851.48
2018-11-01T03:53:52.946Z,851.48
2018-11-01T03:54:52.803Z,851.42
2018-11-01T03:55:52.675Z,851.37
2018-11-01T03:56:52.547Z,851.35
2018-11-01T03:57:52.421Z,851.32
2018-11-01T03:58:52.292Z,851.26
2018-11-01T03:59:52.165Z,851.22
2018-11-01T04:00:52.035Z,851.20
2018-11-01T04:01:51.913Z,851.15
2018-11-01T04:02:51.785Z,851.14
2018-11-01T04:03:51.661Z,851.11
2018-11-01T04:04:51.523Z,851.04
2018-11-01T04:05:51.396Z,850.99
2018-11-01T04:06:51.266Z,851.01
2018-11-01T04:07:51.138Z,850.92
2018-11-01T04:08:51.009Z,850.96
2018-11-01T04:09:50.882Z,850.95
2018-11-01T04:10:50.758Z,850.99
2018-11-01T04:11:50.625Z,850.98
2018-11-01T04:12:50.500Z,850.89
2018-11-01T04:13:50.454Z,850.85
2018-11-01T04:14:50.253Z,850.84
2018-11-01T04:15:50.113Z,850.80
2018-11-01T04:16:49.988Z,850.83
2018-11-01T04:17:49.859Z,850.92
2018-11-01T04:18:49.760Z,850.85
2018-11-01T04:19:49.599Z,850.91
2018-11-01T04:20:49.477Z,850.90
2018-11-01T04:21:49.347Z,850.86
2018-11-01T04:22:49.214Z,850.91
2018-11-01T04:23:49.088Z,850.94
2018-11-01T04:24:48.965Z,850.95
2018-11-01T04:25:48.830Z,850.94
2018-11-01T04:26:48.702Z,850.89
2018-11-01T04:27:48.597Z,850.91
2018-11-01T04:28:48.530Z,850.84
2018-11-01T04:29:48.320Z,850.83
2018-11-01T04:30:48.192Z,850.81
2018-11-01T04:31:48.063Z,850.78
2018-11-01T04:32:47.937Z,850.81
2018-11-01T04:33:47.901Z,850.82
2018-11-01T04:34:47.683Z,850.76
2018-11-01T04:35:47.551Z,850.83
2018-11-01T04:36:47.426Z,850.85
2018-11-01T04:37:47.297Z,850.84
2018-11-01T04:38:47.168Z,850.86
2018-11-01T04:39:47.038Z,850.88
2018-11-01T04:40:47.003Z,850.85
2018-11-01T04:41:46.787Z,850.86
2018-11-01T04:42:46.656Z,850.86
2018-11-01T04:43:46.530Z,850.86
2018-11-01T04:44:46.405Z,850.82
2018-11-01T04:45:46.272Z,850.83
2018-11-01T04:46:46.144Z,850.79
2018-11-01T04:47:46.181Z,850.76
2018-11-01T04:48:45.887Z,850.73
2018-11-01T04:49:45.759Z,850.72
2018-11-01T04:50:45.631Z,850.63
2018-11-01T04:51:45.507Z,850.61
2018-11-01T04:52:45.374Z,850.57
2018-11-01T04:53:45.244Z,850.65
2018-11-01T04:54:45.117Z,850.65
2018-11-01T04:55:44.989Z,850.70
2018-11-01T04:56:44.860Z,850.80
2018-11-01T04:57:44.733Z,850.87
2018-11-01T04:58:44.604Z,850.87
2018-11-01T04:59:44.474Z,850.92
2018-11-01T05:00:44.353Z,850.95
2018-11-01T05:01:44.217Z,850.95
2018-11-01T05:02:44.094Z,850.95
2018-11-01T05:03:44.030Z,850.86
2018-11-01T05:04:43.829Z,850.85
2018-11-01T05:05:43.699Z,850.78
2018-11-01T05:06:43.604Z,850.77
2018-11-01T05:07:43.445Z,850.77
2018-11-01T05:08:43.313Z,850.74
2018-11-01T05:09:43.184Z,850.76
2018-11-01T05:10:43.054Z,850.78
2018-11-01T05:11:42.925Z,850.80
2018-11-01T05:12:42.846Z,850.83
2018-11-01T05:13:42.664Z,850.87
2018-11-01T05:14:42.538Z,850.88
2018-11-01T05:15:42.409Z,850.93
2018-11-01T05:16:42.277Z,850.92
2018-11-01T05:17:42.149Z,850.89
2018-11-01T05:18:42.029Z,850.94
2018-11-01T05:19:41.890Z,850.87
2018-11-01T05:20:41.799Z,850.84
2018-11-01T05:21:41.642Z,850.84
2018-11-01T05:22:41.502Z,850.84
2018-11-01T05:23:41.371Z,850.85
2018-11-01T05:24:41.311Z,850.86
2018-11-01T05:25:41.133Z,850.83
2018-11-01T05:26:40.982Z,850.79
2018-11-01T05:27:40.853Z,850.75
2018-11-01T05:28:40.730Z,850.74
2018-11-01T05:29:40.595Z,850.74
2018-11-01T05:30:40.469Z,850.71
2018-11-01T05:31:40.348Z,850.68
2018-11-01T05:32:40.230Z,850.68
2018-11-01T05:33:40.074Z,850.68
2018-11-01T05:34:39.948Z,850.75
2018-11-01T05:35:39.817Z,850.78
2018-11-01T05:36:39.686Z,850.76
2018-11-01T05:37:39.557Z,850.79
2018-11-01T05:38:39.430Z,850.79
2018-11-01T05:39:39.296Z,850.80
2018-11-01T05:40:39.167Z,850.82
2018-11-01T05:41:39.044Z,850.82
2018-11-01T05:42:38.906Z,850.80
2018-11-01T05:43:38.777Z,850.86
2018-11-01T05:44:38.651Z,850.84
2018-11-01T05:45:38.516Z,850.91
2018-11-01T05:46:38.388Z,850.86
2018-11-01T05:47:38.256Z,850.86
2018-11-01T05:48:38.127Z,850.82
2018-11-01T05:49:38.000Z,850.84
2018-11-01T05:50:37.866Z,850.88
2018-11-01T05:51:37.737Z,850.90
2018-11-01T05:52:37.607Z,850.91
2018-11-01T05:53:37.474Z,850.88
2018-11-01T05:54:37.346Z,850.83
2018-11-01T05:55:37.222Z,850.84
2018-11-01T05:56:37.084Z,850.83
2018-11-01T05:57:36.957Z,850.84
2018-11-01T05:58:36.824Z,850.88
2018-11-01T05:59:36.694Z,850.84
2018-11-01T06:00:36.566Z,850.85
2018-11-01T06:01:36.436Z,850.83
2018-11-01T06:02:36.305Z,850.80
2018-11-01T06:03:36.177Z,850.78
2018-11-01T06:04:36.045Z,850.83
2018-11-01T06:05:35.982Z,850.81
2018-11-01T06:06:35.784Z,850.80
2018-11-01T06:07:35.659Z,850.81
2018-11-01T06:08:35.526Z,850.80
2018-11-01T06:09:35.394Z,850.80
2018-11-01T06:10:35.264Z,850.84
2018-11-01T06:11:35.133Z,850.82
2018-11-01T06:12:35.094Z,850.85
2018-11-01T06:13:34.875Z,850.78
2018-11-01T06:14:34.743Z,850.74
2018-11-01T06:15:34.614Z,850.77
2018-11-01T06:16:34.485Z,850.80
2018-11-01T06:17:34.353Z,850.81
2018-11-01T06:18:34.224Z,850.83
2018-11-01T06:19:34.095Z,850.78
2018-11-01T06:20:33.971Z,850.85
2018-11-01T06:21:33.838Z,850.84
2018-11-01T06:22:33.705Z,850.90
2018-11-01T06:23:33.572Z,850.88
2018-11-01T06:24:33.460Z,850.86
2018-11-01T06:25:33.314Z,850.89
2018-11-01T06:26:33.183Z,850.88
2018-11-01T06:27:33.053Z,850.87
2018-11-01T06:28:32.921Z,850.86
2018-11-01T06:29:32.791Z,850.83
2018-11-01T06:30:32.763Z,850.87
2018-11-01T06:31:32.533Z,850.89
2018-11-01T06:32:32.402Z,850.89
2018-11-01T06:33:32.276Z,850.94
2018-11-01T06:34:32.143Z,850.93
2018-11-01T06:35:32.010Z,850.96
2018-11-01T06:36:31.885Z,850.97
2018-11-01T06:37:31.749Z,851.01
2018-11-01T06:38:31.619Z,850.96
2018-11-01T06:39:31.491Z,850.95
2018-11-01T06:40:31.359Z,850.88
2018-11-01T06:41:31.228Z,850.94
2018-11-01T06:42:31.096Z,850.91
2018-11-01T06:43:30.967Z,850.94
2018-11-01T06:44:30.842Z,851.00
2018-11-01T06:45:30.707Z,850.99
2018-11-01T06:46:30.581Z,851.00
2018-11-01T06:47:30.447Z,850.98
2018-11-01T06:48:30.317Z,850.93
2018-11-01T06:49:30.185Z,850.93
2018-11-01T06:50:30.055Z,850.92
2018-11-01T06:51:29.926Z,850.95
2018-11-01T06:52:29.847Z,850.89
2018-11-01T06:53:29.663Z,850.87
2018-11-01T06:54:29.534Z,850.92
2018-11-01T06:55:29.404Z,850.94
2018-11-01T06:56:29.275Z,850.95
2018-11-01T06:57:29.142Z,850.98
2018-11-01T06:58:29.202Z,851.03
2018-11-01T06:59:28.906Z,851.14
2018-11-01T07:00:28.756Z,851.18
2018-11-01T07:01:28.623Z,851.23
2018-11-01T07:02:28.493Z,851.27
2018-11-01T07:03:28.361Z,851.29
2018-11-01T07:04:28.232Z,851.35
2018-11-01T07:05:28.109Z,851.43
2018-11-01T07:06:27.970Z,851.41
2018-11-01T07:07:27.847Z,851.39
2018-11-01T07:08:27.711Z,851.41
2018-11-01T07:09:27.579Z,851.44
2018-11-01T07:10:27.451Z,851.40
2018-11-01T07:11:27.393Z,851.41
2018-11-01T07:12:27.190Z,851.40
2018-11-01T07:13:27.062Z,851.36
2018-11-01T07:14:26.927Z,851.42
2018-11-01T07:15:26.796Z,851.48
2018-11-01T07:16:26.669Z,851.49
2018-11-01T07:17:26.698Z,851.54
2018-11-01T07:18:26.405Z,851.51
2018-11-01T07:19:26.276Z,851.55
2018-11-01T07:20:26.146Z,851.56
2018-11-01T07:21:26.015Z,851.55
2018-11-01T07:22:25.886Z,851.56
2018-11-01T07:23:25.754Z,851.58
2018-11-01T07:24:25.625Z,851.64
2018-11-01T07:25:25.607Z,851.61
2018-11-01T07:26:25.442Z,851.67
2018-11-01T07:27:25.232Z,851.63
2018-11-01T07:28:25.107Z,851.61
2018-11-01T07:29:24.971Z,851.65
2018-11-01T07:30:24.842Z,851.69
2018-11-01T07:31:24.713Z,851.72
2018-11-01T07:32:24.644Z,851.70
2018-11-01T07:33:24.455Z,851.65
2018-11-01T07:34:24.321Z,851.64
2018-11-01T07:35:24.192Z,851.62
2018-11-01T07:36:24.061Z,851.59
2018-11-01T07:37:23.933Z,851.63
2018-11-01T07:38:23.803Z,851.64
2018-11-01T07:39:23.673Z,851.63
2018-11-01T07:40:23.546Z,851.66
2018-11-01T07:41:23.411Z,851.71
2018-11-01T07:42:23.282Z,851.75
2018-11-01T07:43:23.151Z,851.77
2018-11-01T07:44:23.020Z,851.75
2018-11-01T07:45:22.894Z,851.75
2018-11-01T07:46:22.762Z,851.76
2018-11-01T07:47:22.681Z,851.79
2018-11-01T07:48:22.505Z,851.77
2018-11-01T07:49:22.409Z,851.72
2018-11-01T07:50:22.248Z,851.72
2018-11-01T07:51:22.388Z,851.70
2018-11-01T07:52:21.981Z,851.70
2018-11-01T07:53:21.884Z,851.72
2018-11-01T07:54:21.723Z,851.70
2018-11-01T07:55:21.591Z,851.69
2018-11-01T07:56:21.461Z,851.64
2018-11-01T07:57:21.331Z,851.67
2018-11-01T07:58:21.238Z,851.71
2018-11-01T07:59:21.071Z,851.68
2018-11-01T08:00:20.957Z,851.68
2018-11-01T08:01:20.852Z,851.64
2018-11-01T08:02:20.761Z,851.65
2018-11-01T08:03:20.559Z,851.68
2018-11-01T08:04:20.420Z,851.68
2018-11-01T08:05:20.291Z,851.76
2018-11-01T08:06:20.159Z,851.82
2018-11-01T08:07:20.067Z,851.75
2018-11-01T08:08:20.071Z,851.76
2018-11-01T08:09:19.770Z,851.75
2018-11-01T08:10:19.637Z,851.75
2018-11-01T08:11:19.508Z,851.71
2018-11-01T08:12:19.381Z,851.73
2018-11-01T08:13:19.251Z,851.69
2018-11-01T08:14:19.120Z,851.67
2018-11-01T08:15:18.990Z,851.66
2018-11-01T08:16:18.864Z,851.69
2018-11-01T08:17:18.726Z,851.69
2018-11-01T08:18:18.596Z,851.69
2018-11-01T08:19:18.465Z,851.68
2018-11-01T08:20:18.660Z,851.63
2018-11-01T08:21:18.314Z,851.64
2018-11-01T08:22:18.075Z,851.63
2018-11-01T08:23:17.946Z,851.66
2018-11-01T08:24:17.815Z,851.60
2018-11-01T08:25:17.685Z,851.66
2018-11-01T08:26:17.553Z,851.73
2018-11-01T08:27:17.426Z,851.80
2018-11-01T08:28:17.294Z,851.85
2018-11-01T08:29:17.171Z,851.84
2018-11-01T08:30:17.034Z,851.85
2018-11-01T08:31:16.907Z,851.85
2018-11-01T08:32:16.776Z,851.81
2018-11-01T08:33:16.640Z,851.84
2018-11-01T08:34:16.511Z,851.82
2018-11-01T08:35:16.386Z,851.85
2018-11-01T08:36:16.251Z,851.90
2018-11-01T08:37:16.120Z,851.92
2018-11-01T08:38:15.989Z,851.89
2018-11-01T08:39:15.949Z,851.83
2018-11-01T08:40:15.731Z,851.78
2018-11-01T08:41:15.604Z,851.75
2018-11-01T08:42:15.469Z,851.70
2018-11-01T08:43:15.342Z,851.69
2018-11-01T08:44:15.215Z,851.73
2018-11-01T08:45:15.078Z,851.78
2018-11-01T08:46:14.948Z,851.85
2018-11-01T08:47:14.818Z,851.84
2018-11-01T08:48:14.686Z,851.83
2018-11-01T08:49:14.596Z,851.76
2018-11-01T08:50:14.425Z,851.72
2018-11-01T08:51:14.298Z,851.62
2018-11-01T08:52:14.167Z,851.55
2018-11-01T08:53:14.037Z,851.56
2018-11-01T08:54:13.904Z,851.55
2018-11-01T08:55:13.777Z,851.57
2018-11-01T08:56:13.645Z,851.60
2018-11-01T08:57:13.514Z,851.56
2018-11-01T08:58:13.385Z,851.53
2018-11-01T08:59:13.256Z,851.53
2018-11-01T09:00:13.128Z,851.53
2018-11-01T09:01:12.996Z,851.55
2018-11-01T09:02:12.872Z,851.61
2018-11-01T09:03:12.742Z,851.62
2018-11-01T09:04:12.649Z,851.60
2018-11-01T09:05:12.477Z,851.59
2018-11-01T09:06:12.347Z,851.58
2018-11-01T09:07:12.216Z,851.60
2018-11-01T09:08:12.164Z,851.53
2018-11-01T09:09:11.958Z,851.50
2018-11-01T09:10:11.828Z,851.50
2018-11-01T09:11:11.698Z,851.55
2018-11-01T09:12:11.571Z,851.50
2018-11-01T09:13:11.483Z,851.48
2018-11-01T09:14:11.313Z,851.47
2018-11-01T09:15:11.184Z,851.42
2018-11-01T09:16:11.054Z,851.39
2018-11-01T09:17:10.921Z,851.43
2018-11-01T09:18:10.792Z,851.45
2018-11-01T09:19:10.673Z,851.46
2018-11-01T09:20:10.538Z,851.48
2018-11-01T09:21:10.405Z,851.45
2018-11-01T09:22:10.277Z,851.44
2018-11-01T09:23:10.149Z,851.50
2018-11-01T09:24:10.021Z,851.54
2018-11-01T09:25:09.891Z,851.47
2018-11-01T09:26:09.762Z,851.41
2018-11-01T09:27:09.705Z,851.37
2018-11-01T09:28:09.503Z,851.38
2018-11-01T09:29:09.374Z,851.46
2018-11-01T09:30:09.249Z,851.43
2018-11-01T09:31:09.135Z,851.40
2018-11-01T09:32:08.992Z,851.45
2018-11-01T09:33:08.859Z,851.42
2018-11-01T09:34:08.731Z,851.39
2018-11-01T09:35:08.601Z,851.36
2018-11-01T09:36:08.475Z,851.37
2018-11-01T09:37:08.342Z,851.45
2018-11-01T09:38:08.215Z,851.50
2018-11-01T09:39:08.089Z,851.49
2018-11-01T09:40:07.960Z,851.45
2018-11-01T09:41:07.830Z,851.43
2018-11-01T09:42:07.703Z,851.46
2018-11-01T09:43:07.575Z,851.52
2018-11-01T09:44:07.448Z,851.57
2018-11-01T09:45:07.319Z,851.58
2018-11-01T09:46:07.299Z,851.63
2018-11-01T09:47:07.278Z,851.70
2018-11-01T09:48:06.936Z,851.70
2018-11-01T09:49:06.810Z,851.66
2018-11-01T09:50:06.682Z,851.67
2018-11-01T09:51:06.552Z,851.70
2018-11-01T09:52:06.428Z,851.75
2018-11-01T09:53:06.298Z,851.72
2018-11-01T09:54:06.171Z,851.67
2018-11-01T09:55:06.042Z,851.64
2018-11-01T09:56:06.004Z,851.69
2018-11-01T09:57:05.785Z,851.66
2018-11-01T09:58:05.664Z,851.66
2018-11-01T09:59:05.531Z,851.69
2018-11-01T10:00:05.403Z,851.74
2018-11-01T10:01:05.392Z,851.74
2018-11-01T10:02:05.149Z,851.71
2018-11-01T10:03:05.022Z,851.70
2018-11-01T10:04:04.893Z,851.70
2018-11-01T10:05:04.767Z,851.72
2018-11-01T10:06:04.666Z,851.79
2018-11-01T10:07:04.585Z,851.81
2018-11-01T10:08:04.382Z,851.83
2018-11-01T10:09:04.253Z,851.85
2018-11-01T10:10:04.127Z,851.80
2018-11-01T10:11:03.998Z,851.85
2018-11-01T10:12:03.871Z,851.79
2018-11-01T10:13:03.742Z,851.84
2018-11-01T10:14:03.613Z,851.91
2018-11-01T10:15:03.625Z,851.92
2018-11-01T10:16:03.460Z,851.92
2018-11-01T10:17:03.547Z,851.99
2018-11-01T10:18:03.472Z,851.99
2018-11-01T10:19:02.974Z,852.02
2018-11-01T10:20:02.847Z,852.02
2018-11-01T10:21:02.721Z,852.01
2018-11-01T10:22:02.652Z,852.03
2018-11-01T10:23:02.557Z,852.03
2018-11-01T10:24:02.335Z,852.06
2018-11-01T10:25:02.223Z,852.08
2018-11-01T10:26:02.081Z,852.04
2018-11-01T10:27:01.950Z,852.01
2018-11-01T10:28:01.822Z,852.04
2018-11-01T10:29:01.692Z,852.03
2018-11-01T10:30:01.566Z,852.00
2018-11-01T10:31:01.437Z,851.94
2018-11-01T10:32:01.310Z,851.94
2018-11-01T10:33:01.181Z,851.95
2018-11-01T10:34:01.143Z,851.91
2018-11-01T10:35:00.925Z,851.88
2018-11-01T10:36:00.801Z,851.91
2018-11-01T10:37:00.672Z,851.97
2018-11-01T10:38:00.546Z,851.96
2018-11-01T10:39:00.412Z,852.00
2018-11-01T10:40:00.285Z,852.07
2018-11-01T10:41:00.272Z,852.17
2018-11-01T10:42:00.028Z,852.15
2018-11-01T10:42:59.902Z,852.14
2018-11-01T10:43:59.771Z,852.09
2018-11-01T10:44:59.642Z,852.04
2018-11-01T10:45:59.515Z,852.02
2018-11-01T10:46:59.387Z,851.95
2018-11-01T10:47:59.261Z,851.94
2018-11-01T10:48:59.130Z,851.88
2018-11-01T10:49:59.003Z,851.82
2018-11-01T10:50:58.874Z,851.83
2018-11-01T10:51:58.747Z,851.83
2018-11-01T10:52:58.623Z,851.86
2018-11-01T10:53:58.502Z,851.86
2018-11-01T10:54:58.363Z,851.83
2018-11-01T10:55:58.234Z,851.80
2018-11-01T10:56:58.108Z,851.88
2018-11-01T10:57:57.978Z,852.03
2018-11-01T10:58:57.853Z,852.08
2018-11-01T10:59:57.740Z,852.07
2018-11-01T11:00:57.769Z,852.00
2018-11-01T11:01:57.470Z,851.99
2018-11-01T11:02:57.339Z,852.03
2018-11-01T11:03:57.211Z,852.12
2018-11-01T11:04:57.085Z,852.13
2018-11-01T11:05:56.958Z,852.14
2018-11-01T11:06:56.831Z,852.14
2018-11-01T11:07:56.703Z,852.10
2018-11-01T11:08:56.575Z,852.15
2018-11-01T11:09:56.447Z,852.14
2018-11-01T11:10:56.321Z,852.13
2018-11-01T11:11:56.194Z,852.20
2018-11-01T11:12:56.068Z,852.17
2018-11-01T11:13:55.941Z,852.19
2018-11-01T11:14:55.813Z,852.21
2018-11-01T11:15:55.688Z,852.25
2018-11-01T11:16:55.560Z,852.11
2018-11-01T11:17:55.434Z,852.03
2018-11-01T11:18:55.310Z,851.99
2018-11-01T11:19:55.297Z,852.04
2018-11-01T11:20:55.319Z,852.14
2018-11-01T11:21:54.928Z,852.14
2018-11-01T11:22:54.800Z,852.07
2018-11-01T11:23:54.675Z,852.02
2018-11-01T11:24:54.549Z,851.99
2018-11-01T11:25:54.422Z,851.95
2018-11-01T11:26:54.295Z,851.96
2018-11-01T11:27:54.169Z,851.98
2018-11-01T11:28:54.040Z,852.03
2018-11-01T11:29:53.982Z,852.04
2018-11-01T11:30:53.789Z,852.13
2018-11-01T11:31:53.662Z,852.20
2018-11-01T11:32:53.540Z,852.21
2018-11-01T11:33:53.411Z,852.16
2018-11-01T11:34:53.284Z,852.12
2018-11-01T11:35:53.164Z,852.05
2018-11-01T11:36:53.032Z,852.06
2018-11-01T11:37:52.905Z,852.12
2018-11-01T11:38:52.792Z,852.16
2018-11-01T11:39:52.656Z,852.23
2018-11-01T11:40:52.528Z,852.24
2018-11-01T11:41:52.409Z,852.29
2018-11-01T11:42:52.278Z,852.22
2018-11-01T11:43:52.158Z,852.17
2018-11-01T11:44:52.033Z,852.12
2018-11-01T11:45:51.902Z,852.07
2018-11-01T11:46:51.778Z,852.06
2018-11-01T11:47:51.651Z,852.07
2018-11-01T11:48:51.525Z,852.09
2018-11-01T11:49:51.407Z,852.13
2018-11-01T11:50:51.277Z,852.15
2018-11-01T11:51:51.174Z,852.20
2018-11-01T11:52:51.026Z,852.17
2018-11-01T11:53:50.903Z,852.15
2018-11-01T11:54:50.776Z,852.13
2018-11-01T11:55:50.651Z,852.13
2018-11-01T11:56:50.528Z,852.05
2018-11-01T11:57:50.401Z,852.08
2018-11-01T11:58:50.274Z,852.11
2018-11-01T11:59:50.151Z,852.16
2018-11-01T12:00:50.024Z,852.13
2018-11-01T12:01:49.898Z,852.11
2018-11-01T12:02:49.778Z,852.05
2018-11-01T12:03:49.649Z,852.01
2018-11-01T12:04:49.522Z,852.02
2018-11-01T12:05:49.408Z,852.00
2018-11-01T12:06:49.274Z,851.98
2018-11-01T12:07:49.148Z,852.02
2018-11-01T12:08:49.021Z,852.04
2018-11-01T12:09:48.898Z,852.05
2018-11-01T12:10:48.769Z,852.02
2018-11-01T12:11:48.645Z,851.99
2018-11-01T12:12:48.520Z,851.95
2018-11-01T12:13:48.396Z,851.86
2018-11-01T12:14:48.270Z,851.86
2018-11-01T12:15:48.145Z,851.93
2018-11-01T12:16:48.022Z,852.00
2018-11-01T12:17:47.894Z,852.02
2018-11-01T12:18:47.769Z,851.96
2018-11-01T12:19:47.644Z,852.02
2018-11-01T12:20:47.516Z,852.01
2018-11-01T12:21:47.392Z,852.04
2018-11-01T12:22:47.268Z,852.00
2018-11-01T12:23:47.141Z,851.97
2018-11-01T12:24:47.022Z,851.94
2018-11-01T12:25:46.892Z,851.91
2018-11-01T12:26:46.766Z,851.88